createdAt,value
2022-09-30T00:03:24.081Z,0.80
2022-09-30T00:08:25.925Z,0.70
2022-09-30T00:13:27.455Z,0.80
2022-09-30T00:18:28.939Z,0.93
2022-09-30T00:23:30.620Z,0.77
2022-09-30T00:28:32.073Z,0.80
2022-09-30T00:33:34.260Z,0.80
2022-09-30T00:38:35.780Z,0.88
2022-09-30T00:43:45.649Z,0.80
2022-09-30T00:48:50.969Z,0.70
2022-09-30T00:53:56.823Z,0.80
2022-09-30T00:59:10.641Z,0.80
2022-09-30T01:04:14.324Z,0.70
2022-09-30T01:09:15.841Z,0.68
2022-09-30T01:14:22.945Z,1.08
2022-09-30T01:19:36.562Z,0.98
2022-09-30T01:24:40.817Z,0.90
2022-09-30T01:30:00.800Z,1.10
2022-09-30T01:35:08.212Z,1.07
2022-09-30T01:40:22.676Z,0.80
2022-09-30T01:45:35.297Z,0.68
2022-09-30T01:50:36.857Z,1.00
2022-09-30T01:55:41.370Z,0.85
2022-09-30T02:00:44.656Z,1.00
2022-09-30T02:05:51.180Z,1.38
2022-09-30T02:10:56.223Z,1.02
2022-09-30T02:15:59.464Z,0.90
2022-09-30T02:21:02.860Z,0.63
2022-09-30T02:26:07.792Z,0.90
2022-09-30T02:31:11.297Z,1.00
2022-09-30T02:36:19.425Z,1.00
2022-09-30T02:41:24.555Z,1.00
2022-09-30T02:46:25.995Z,0.85
2022-09-30T02:51:49.808Z,1.20
2022-09-30T02:56:54.953Z,0.90
2022-09-30T03:01:56.454Z,0.90
2022-09-30T03:06:57.968Z,1.08
2022-09-30T03:12:09.706Z,1.00
2022-09-30T03:17:19.980Z,0.90
2022-09-30T03:22:28.662Z,0.95
2022-09-30T03:27:36.020Z,0.85
2022-09-30T03:32:52.855Z,0.90
2022-09-30T03:37:58.100Z,0.95
2022-09-30T03:43:11.800Z,1.00
2022-09-30T03:48:14.314Z,0.90
2022-09-30T03:53:16.151Z,0.90
2022-09-30T03:58:23.312Z,0.98
2022-09-30T04:03:27.905Z,1.10
2022-09-30T04:08:33.609Z,1.25
2022-09-30T04:13:35.365Z,1.50
2022-09-30T04:18:38.345Z,0.82
2022-09-30T04:23:40.749Z,0.82
2022-09-30T04:28:42.244Z,1.10
2022-09-30T04:33:45.065Z,1.20
2022-09-30T04:38:46.513Z,0.95
2022-09-30T04:43:48.370Z,1.23
2022-09-30T04:48:50.048Z,1.13
2022-09-30T04:53:51.468Z,1.00
2022-09-30T04:58:54.103Z,0.95
2022-09-30T05:03:55.521Z,1.05
2022-09-30T05:08:57.135Z,1.23
2022-09-30T05:13:58.748Z,1.00
2022-09-30T05:19:00.191Z,1.15
2022-09-30T05:24:02.158Z,1.00
2022-09-30T05:29:03.637Z,1.15
2022-09-30T05:34:05.050Z,1.15
2022-09-30T05:39:06.471Z,1.10
2022-09-30T05:44:09.276Z,1.10
2022-09-30T05:49:10.812Z,0.90
2022-09-30T05:54:12.269Z,0.90
2022-09-30T05:59:13.724Z,1.50
2022-09-30T06:04:15.172Z,1.17
2022-09-30T06:09:18.167Z,1.08
2022-09-30T06:14:20.043Z,1.00
2022-09-30T06:19:21.676Z,0.98
2022-09-30T06:24:23.200Z,1.10
2022-09-30T06:29:24.678Z,1.48
2022-09-30T06:34:26.198Z,1.30
2022-09-30T06:39:27.988Z,1.05
2022-09-30T06:44:29.408Z,1.23
2022-09-30T06:49:43.743Z,1.10
2022-09-30T06:54:51.210Z,1.45
2022-09-30T06:59:52.606Z,1.30
2022-09-30T07:04:54.004Z,1.25
2022-09-30T07:09:59.590Z,1.27
2022-09-30T07:15:01.251Z,1.30
2022-09-30T07:20:02.659Z,1.63
2022-09-30T07:25:04.305Z,1.20
2022-09-30T07:30:13.313Z,1.13
2022-09-30T07:35:21.951Z,1.45
2022-09-30T07:40:23.348Z,1.23
2022-09-30T07:45:25.384Z,1.35
2022-09-30T07:50:26.847Z,1.40
2022-09-30T07:55:28.240Z,1.30
2022-09-30T08:00:42.183Z,1.38
2022-09-30T08:05:45.310Z,1.50
2022-09-30T08:10:46.786Z,1.27
2022-09-30T08:15:48.701Z,1.30
2022-09-30T08:20:50.353Z,1.25
2022-09-30T08:25:51.797Z,1.25
2022-09-30T08:30:53.220Z,1.10
2022-09-30T08:35:54.781Z,1.02
2022-09-30T08:41:08.461Z,1.40
2022-09-30T08:46:22.561Z,1.00
2022-09-30T08:51:32.008Z,1.27
2022-09-30T08:56:33.991Z,1.30
2022-09-30T09:01:38.320Z,0.93
2022-09-30T09:06:46.894Z,1.20
2022-09-30T09:11:54.438Z,1.00
2022-09-30T09:17:03.243Z,1.20
2022-09-30T09:22:05.069Z,1.42
2022-09-30T09:27:20.825Z,1.10
2022-09-30T09:32:22.309Z,1.15
2022-09-30T09:37:57.589Z,1.17
2022-09-30T09:43:12.240Z,1.20
2022-09-30T09:48:17.095Z,1.30
2022-09-30T09:53:41.786Z,1.35
2022-09-30T09:59:04.097Z,1.35
2022-09-30T10:04:24.529Z,0.88
2022-09-30T10:14:27.547Z,1.20
2022-09-30T10:19:30.494Z,1.10
2022-09-30T10:24:31.905Z,1.02
2022-09-30T10:29:34.609Z,1.20
2022-09-30T10:34:40.952Z,1.10
2022-09-30T10:39:43.609Z,1.20
2022-09-30T10:44:46.997Z,1.10
2022-09-30T10:49:50.026Z,1.20
2022-09-30T10:54:51.477Z,1.00
2022-09-30T10:59:55.839Z,1.35
2022-09-30T11:05:01.500Z,1.00
2022-09-30T11:10:07.075Z,1.27
2022-09-30T11:15:15.961Z,1.25
2022-09-30T11:20:19.987Z,1.60
2022-09-30T11:25:41.665Z,1.17
2022-09-30T11:31:07.355Z,1.10
2022-09-30T11:36:22.500Z,0.98
2022-09-30T11:41:28.774Z,1.10
2022-09-30T11:46:42.036Z,0.77
2022-09-30T11:51:43.421Z,0.80
2022-09-30T11:56:56.829Z,0.70
2022-09-30T12:02:01.248Z,1.13
2022-09-30T12:07:16.587Z,1.08
2022-09-30T12:12:18.857Z,0.80
2022-09-30T12:17:38.728Z,1.00
2022-09-30T12:22:41.958Z,0.90
2022-09-30T12:27:46.723Z,1.00
2022-09-30T12:32:58.508Z,0.98
2022-09-30T12:38:18.849Z,1.17
2022-09-30T12:43:35.416Z,1.15
2022-09-30T12:48:44.976Z,0.90
2022-09-30T12:53:50.082Z,1.00
2022-09-30T12:58:51.941Z,0.93
2022-09-30T13:03:59.373Z,0.90
2022-09-30T13:09:17.917Z,0.77
2022-09-30T13:14:39.534Z,1.13
2022-09-30T13:19:42.357Z,1.00
2022-09-30T13:25:04.011Z,1.20
2022-09-30T13:30:17.260Z,1.10
2022-09-30T13:35:30.549Z,1.00
2022-09-30T13:40:50.080Z,1.33
2022-09-30T13:45:54.690Z,1.20
2022-09-30T13:50:59.877Z,0.82
2022-09-30T13:56:04.951Z,0.80
2022-09-30T14:01:12.746Z,0.80
2022-09-30T14:06:46.916Z,0.57
2022-09-30T14:12:00.290Z,0.85
2022-09-30T14:17:08.801Z,0.80
2022-09-30T14:22:11.328Z,0.77
2022-09-30T14:27:37.526Z,0.88
2022-09-30T14:32:43.390Z,1.20
2022-09-30T14:37:47.545Z,0.85
2022-09-30T14:42:50.049Z,0.80
2022-09-30T14:47:52.560Z,0.90
2022-09-30T14:52:58.119Z,1.05
2022-09-30T14:58:32.171Z,0.70
2022-09-30T15:03:51.640Z,0.88
2022-09-30T15:09:00.814Z,1.10
2022-09-30T15:14:05.344Z,1.50
2022-09-30T15:19:15.500Z,1.50
2022-09-30T15:24:17.986Z,1.05
2022-09-30T15:29:19.436Z,0.93
2022-09-30T15:34:25.190Z,1.20
2022-09-30T15:39:50.907Z,1.40
2022-09-30T15:44:52.386Z,1.10
2022-09-30T15:49:53.894Z,1.00
2022-09-30T15:54:55.819Z,1.45
2022-09-30T16:00:01.956Z,1.40
2022-09-30T16:05:03.531Z,1.30
2022-09-30T16:10:08.575Z,1.52
2022-09-30T16:15:15.560Z,2.05
2022-09-30T16:20:19.950Z,1.88
2022-09-30T16:25:21.351Z,1.55
2022-09-30T16:30:22.793Z,0.95
2022-09-30T16:35:25.209Z,1.13
2022-09-30T16:40:28.755Z,1.10
2022-09-30T16:45:30.528Z,1.70
2022-09-30T16:50:37.863Z,1.48
2022-09-30T16:55:39.526Z,2.03
2022-09-30T17:00:43.141Z,3.00
2022-09-30T17:05:45.595Z,2.60
2022-09-30T17:10:49.866Z,3.47
2022-09-30T17:15:51.796Z,3.05
2022-09-30T17:20:53.763Z,2.78
2022-09-30T17:25:55.257Z,2.72
2022-09-30T17:30:56.915Z,2.40
2022-09-30T17:36:02.293Z,2.08
2022-09-30T17:41:22.848Z,2.10
2022-09-30T17:46:25.571Z,2.00
2022-09-30T17:51:26.978Z,1.70
2022-09-30T17:56:29.014Z,1.73
2022-09-30T18:01:31.179Z,1.30
2022-09-30T18:06:34.520Z,2.13
2022-09-30T18:11:42.097Z,1.67
2022-09-30T18:16:45.116Z,1.30
2022-09-30T18:21:46.597Z,1.50
2022-09-30T18:26:48.011Z,1.90
2022-09-30T18:31:49.441Z,1.52
2022-09-30T18:36:50.909Z,1.70
2022-09-30T18:41:52.297Z,2.08
2022-09-30T18:46:56.776Z,2.75
2022-09-30T18:51:58.211Z,3.28
2022-09-30T18:56:59.914Z,3.38
2022-09-30T19:02:02.945Z,3.38
2022-09-30T19:07:04.967Z,2.63
2022-09-30T19:12:06.923Z,2.75
2022-09-30T19:17:08.324Z,2.97
2022-09-30T19:22:10.642Z,2.58
2022-09-30T19:27:12.171Z,2.70
2022-09-30T19:32:13.603Z,2.03
2022-09-30T19:37:24.818Z,2.00
2022-09-30T19:42:29.779Z,1.80
2022-09-30T19:47:34.330Z,1.92
2022-09-30T19:52:39.456Z,2.05
2022-09-30T19:57:46.794Z,1.95
2022-09-30T20:02:48.223Z,1.80
2022-09-30T20:07:51.250Z,0.82
2022-09-30T20:12:52.811Z,1.05
2022-09-30T20:17:54.586Z,1.08
2022-09-30T20:22:57.182Z,1.40
2022-09-30T20:27:58.656Z,0.90
2022-09-30T20:33:01.376Z,1.25
2022-09-30T20:38:02.782Z,0.82
2022-09-30T20:43:04.258Z,0.98
2022-09-30T20:48:05.666Z,1.08
2022-09-30T20:53:11.441Z,1.08
2022-09-30T20:58:13.055Z,0.80
2022-09-30T21:03:15.123Z,0.80
2022-09-30T21:08:16.564Z,0.80
2022-09-30T21:13:18.071Z,1.00
2022-09-30T21:18:19.482Z,0.80
2022-09-30T21:23:20.889Z,0.85
2022-09-30T21:28:22.375Z,2.13
2022-09-30T21:33:24.689Z,2.70
2022-09-30T21:38:26.138Z,2.47
2022-09-30T21:43:31.349Z,0.93
2022-09-30T21:48:33.272Z,0.98
2022-09-30T21:53:34.703Z,1.02
2022-09-30T21:58:36.517Z,0.95
2022-09-30T22:03:38.512Z,0.80
2022-09-30T22:08:40.686Z,1.33
2022-09-30T22:13:43.341Z,0.90
2022-09-30T22:18:44.818Z,1.00
2022-09-30T22:23:46.730Z,0.88
2022-09-30T22:28:53.611Z,0.70
2022-09-30T22:34:14.797Z,1.20
2022-09-30T22:39:16.392Z,0.85
2022-09-30T22:44:17.990Z,1.35
2022-09-30T22:49:19.593Z,0.63
2022-09-30T22:54:21.078Z,0.90
2022-09-30T22:59:23.097Z,0.68
2022-09-30T23:04:27.541Z,1.00
2022-09-30T23:09:29.850Z,0.82
2022-09-30T23:14:31.265Z,0.63
2022-09-30T23:19:32.684Z,0.80
2022-09-30T23:24:34.093Z,0.70
2022-09-30T23:29:35.508Z,0.95
2022-09-30T23:34:36.930Z,1.15
2022-09-30T23:39:38.321Z,1.05
2022-09-30T23:44:39.721Z,1.00
2022-09-30T23:49:42.105Z,1.00
2022-09-30T23:54:43.792Z,1.48
2022-09-30T23:59:45.222Z,1.40
